createdAt,value
2018-12-03T00:00:58.529Z,96547.25
2018-12-03T00:03:33.291Z,96539.73
2018-12-03T00:06:08.321Z,96536.14
2018-12-03T00:08:43.288Z,96536.14
2018-12-03T00:11:18.313Z,96540.53
2018-12-03T00:13:52.905Z,96547.67
2018-12-03T00:16:27.685Z,96548.84
2018-12-03T00:19:02.619Z,96545.19
2018-12-03T00:21:37.308Z,96557.58
2018-12-03T00:24:12.657Z,96551.39
2018-12-03T00:26:47.318Z,96558.81
2018-12-03T00:29:22.278Z,96555.23
2018-12-03T00:31:56.948Z,96565.97
2018-12-03T00:34:31.948Z,96562.18
2018-12-03T00:37:06.665Z,96567.26
2018-12-03T00:39:41.297Z,96557.58
2018-12-03T00:42:16.284Z,96552.66
2018-12-03T00:44:49.281Z,96551.14
2018-12-03T00:47:23.752Z,96553.80
2018-12-03T00:49:58.492Z,96556.57
2018-12-03T00:52:33.278Z,96557.45
2018-12-03T00:55:07.956Z,96557.45
2018-12-03T00:57:42.731Z,96559.50
2018-12-03T01:00:19.284Z,96559.53
2018-12-03T01:02:53.901Z,96559.66
2018-12-03T01:05:28.756Z,96560.42
2018-12-03T01:08:03.448Z,96562.19
2018-12-03T01:10:38.283Z,96552.34
2018-12-03T01:13:11.015Z,96552.34
2018-12-03T01:15:45.744Z,96556.95
2018-12-03T01:18:20.429Z,96558.69
2018-12-03T01:20:55.391Z,96544.80
2018-12-03T01:23:29.941Z,96544.80
2018-12-03T01:26:04.892Z,96566.98
2018-12-03T01:28:39.444Z,96565.75
2018-12-03T01:31:14.284Z,96561.89
2018-12-03T01:33:46.703Z,96561.89
2018-12-03T01:36:21.445Z,96558.36
2018-12-03T01:38:56.279Z,96558.73
2018-12-03T01:41:29.014Z,96554.25
2018-12-03T01:44:03.755Z,96554.25
2018-12-03T01:46:38.471Z,96550.33
2018-12-03T01:49:13.282Z,96541.86
2018-12-03T01:51:46.035Z,96541.86
2018-12-03T01:54:20.803Z,96539.34
2018-12-03T01:56:55.406Z,96536.52
2018-12-03T01:59:30.276Z,96539.13
2018-12-03T02:02:05.279Z,96539.13
2018-12-03T02:04:37.716Z,96541.69
2018-12-03T02:07:12.384Z,96539.34
2018-12-03T02:09:47.270Z,96532.39
2018-12-03T02:12:20.282Z,96532.39
2018-12-03T02:14:54.570Z,96545.77
2018-12-03T02:17:29.291Z,96542.32
2018-12-03T02:20:01.698Z,96534.17
2018-12-03T02:22:36.284Z,96534.17
2018-12-03T02:25:12.291Z,96546.88
2018-12-03T02:27:47.276Z,96544.05
2018-12-03T02:30:20.298Z,96544.05
2018-12-03T02:32:54.976Z,96546.83
2018-12-03T02:35:29.786Z,96545.17
2018-12-03T02:38:04.447Z,96540.77
2018-12-03T02:40:39.289Z,96534.80
2018-12-03T02:43:13.778Z,96524.94
2018-12-03T02:45:48.473Z,96524.94
2018-12-03T02:48:23.282Z,96532.94
2018-12-03T02:50:57.461Z,96532.94
2018-12-03T02:53:32.283Z,96525.87
2018-12-03T02:56:05.081Z,96525.87
2018-12-03T02:58:37.888Z,96531.19
2018-12-03T03:01:12.627Z,96530.56
2018-12-03T03:03:47.350Z,96533.55
2018-12-03T03:06:22.293Z,96530.61
2018-12-03T03:08:56.915Z,96533.70
2018-12-03T03:11:31.380Z,96533.70
2018-12-03T03:14:06.294Z,96524.52
2018-12-03T03:16:41.007Z,96526.27
2018-12-03T03:19:15.756Z,96518.83
2018-12-03T03:21:50.465Z,96522.48
2018-12-03T03:24:25.285Z,96515.96
2018-12-03T03:26:58.044Z,96515.96
2018-12-03T03:29:32.785Z,96509.23
2018-12-03T03:32:07.755Z,96511.80
2018-12-03T03:34:42.370Z,96507.50
2018-12-03T03:37:17.125Z,96508.89
2018-12-03T03:39:49.723Z,96514.96
2018-12-03T03:42:24.635Z,96503.27
2018-12-03T03:44:59.294Z,96504.90
2018-12-03T03:47:33.790Z,96500.06
2018-12-03T03:50:09.294Z,96488.37
2018-12-03T03:52:44.137Z,96488.37
2018-12-03T03:55:17.138Z,96501.58
2018-12-03T03:57:50.022Z,96502.58
2018-12-03T04:00:24.897Z,96501.83
2018-12-03T04:02:59.739Z,96504.60
2018-12-03T04:05:34.403Z,96495.22
2018-12-03T04:08:09.289Z,96501.29
2018-12-03T04:10:41.716Z,96496.37
2018-12-03T04:13:16.383Z,96501.49
2018-12-03T04:15:50.960Z,96500.14
2018-12-03T04:18:25.784Z,96496.39
2018-12-03T04:21:00.440Z,96501.48
2018-12-03T04:23:35.296Z,96490.55
2018-12-03T04:26:08.076Z,96490.55
2018-12-03T04:28:43.117Z,96493.84
2018-12-03T04:31:16.013Z,96494.13
2018-12-03T04:33:50.792Z,96492.39
2018-12-03T04:36:25.470Z,96499.36
2018-12-03T04:39:00.393Z,96500.79
2018-12-03T04:41:33.057Z,96500.79
2018-12-03T04:44:08.284Z,96502.97
2018-12-03T04:46:41.067Z,96497.83
2018-12-03T04:49:15.805Z,96501.83
2018-12-03T04:51:50.392Z,96502.52
2018-12-03T04:54:25.282Z,96494.73
2018-12-03T04:56:58.040Z,96494.73
2018-12-03T04:59:32.954Z,96498.11
2018-12-03T05:02:08.290Z,96496.25
2018-12-03T05:04:42.961Z,96490.64
2018-12-03T05:07:17.667Z,96500.63
2018-12-03T05:09:52.656Z,96493.06
2018-12-03T05:12:27.290Z,96484.21
2018-12-03T05:15:00.194Z,96489.41
2018-12-03T05:17:33.128Z,96489.41
2018-12-03T05:20:09.301Z,96488.41
2018-12-03T05:22:44.306Z,96491.30
2018-12-03T05:25:19.765Z,96489.28
2018-12-03T05:27:55.295Z,96489.28
2018-12-03T05:30:29.900Z,96489.79
2018-12-03T05:33:04.494Z,96489.79
2018-12-03T05:35:39.289Z,96492.31
2018-12-03T05:38:12.124Z,96499.15
2018-12-03T05:40:45.034Z,96496.66
2018-12-03T05:43:19.974Z,96498.58
2018-12-03T05:45:54.820Z,96490.38
2018-12-03T05:48:29.829Z,96485.09
2018-12-03T05:51:04.396Z,96496.17
2018-12-03T05:53:39.297Z,96487.13
2018-12-03T05:56:11.721Z,96487.13
2018-12-03T05:58:46.355Z,96496.68
2018-12-03T06:01:21.301Z,96498.17
2018-12-03T06:03:55.708Z,96500.03
2018-12-03T06:06:30.282Z,96508.38
2018-12-03T06:09:03.311Z,96513.09
2018-12-03T06:11:36.053Z,96509.71
2018-12-03T06:14:11.360Z,96516.92
2018-12-03T06:16:45.951Z,96524.61
2018-12-03T06:19:21.036Z,96524.84
2018-12-03T06:21:59.251Z,96525.47
2018-12-03T06:24:32.117Z,96528.14
2018-12-03T06:27:05.124Z,96528.66
2018-12-03T06:29:38.089Z,96527.40
2018-12-03T06:32:12.456Z,96530.27
2018-12-03T06:34:47.288Z,96528.49
2018-12-03T06:37:20.124Z,96528.49
2018-12-03T06:39:53.285Z,96536.05
2018-12-03T06:42:26.021Z,96535.83
2018-12-03T06:45:01.095Z,96541.09
2018-12-03T06:47:35.959Z,96541.09
2018-12-03T06:50:12.920Z,96556.75
2018-12-03T06:52:47.967Z,96543.38
2018-12-03T06:55:23.303Z,96550.04
2018-12-03T06:57:58.291Z,96551.07
2018-12-03T07:00:31.293Z,96542.88
2018-12-03T07:03:06.293Z,96542.24
2018-12-03T07:05:41.124Z,96538.22
2018-12-03T07:08:14.289Z,96539.98
2018-12-03T07:10:47.134Z,96545.12
2018-12-03T07:13:26.462Z,96550.17
2018-12-03T07:16:02.288Z,96540.11
2018-12-03T07:18:35.281Z,96540.11
2018-12-03T07:21:10.297Z,96554.20
2018-12-03T07:23:43.286Z,96548.66
2018-12-03T07:26:18.311Z,96544.12
2018-12-03T07:28:53.336Z,96541.08
2018-12-03T07:31:28.644Z,96541.08
2018-12-03T07:34:03.510Z,96544.45
2018-12-03T07:36:38.442Z,96539.56
2018-12-03T07:39:13.418Z,96542.72
2018-12-03T07:41:48.303Z,96542.06
2018-12-03T07:44:23.364Z,96540.40
2018-12-03T07:46:58.294Z,96533.59
2018-12-03T07:49:33.393Z,96533.59
2018-12-03T07:52:08.656Z,96552.98
2018-12-03T07:54:43.334Z,96549.23
2018-12-03T07:57:18.120Z,96549.23
2018-12-03T07:59:51.434Z,96546.05
2018-12-03T08:02:26.479Z,96556.48
2018-12-03T08:05:01.314Z,96557.88
2018-12-03T08:07:36.296Z,96557.88
2018-12-03T08:10:17.307Z,96560.75
2018-12-03T08:12:51.285Z,96578.48
2018-12-03T08:15:24.310Z,96570.79
2018-12-03T08:18:04.588Z,96571.89
2018-12-03T08:20:54.743Z,96578.52
2018-12-03T08:23:41.391Z,96572.44
2018-12-03T08:26:17.302Z,96575.75
2018-12-03T08:28:50.141Z,96574.86
2018-12-03T08:31:23.302Z,96569.69
2018-12-03T08:33:56.281Z,96574.61
2018-12-03T08:36:31.295Z,96566.41
2018-12-03T08:39:06.287Z,96559.41
2018-12-03T08:41:40.966Z,96565.33
2018-12-03T08:44:15.289Z,96558.39
2018-12-03T08:46:50.298Z,96570.51
2018-12-03T08:49:25.418Z,96567.45
2018-12-03T08:51:58.079Z,96560.12
2018-12-03T08:54:31.004Z,96550.84
2018-12-03T08:57:05.804Z,96553.85
2018-12-03T08:59:40.914Z,96557.02
2018-12-03T09:02:16.399Z,96557.55
2018-12-03T09:04:55.516Z,96557.27
2018-12-03T09:07:30.386Z,96556.93
2018-12-03T09:10:05.305Z,96556.93
2018-12-03T09:12:38.306Z,96564.72
2018-12-03T09:15:11.057Z,96571.16
2018-12-03T09:17:45.957Z,96553.66
2018-12-03T09:20:20.675Z,96569.30
2018-12-03T09:22:55.432Z,96568.38
2018-12-03T09:25:31.378Z,96575.65
2018-12-03T09:28:06.297Z,96575.65
2018-12-03T09:30:39.115Z,96572.66
2018-12-03T09:33:14.301Z,96575.94
2018-12-03T09:35:47.294Z,96578.87
2018-12-03T09:38:20.354Z,96574.97
2018-12-03T09:41:05.954Z,96579.95
2018-12-03T09:43:44.969Z,96579.95
2018-12-03T09:46:23.849Z,96589.69
2018-12-03T09:49:05.279Z,96588.19
2018-12-03T09:51:41.127Z,96573.94
2018-12-03T09:54:14.414Z,96580.33
2018-12-03T09:56:54.899Z,96577.39
2018-12-03T09:59:30.304Z,96577.39
2018-12-03T10:02:04.703Z,96580.19
2018-12-03T10:04:50.461Z,96585.52
2018-12-03T10:07:25.703Z,96572.27
2018-12-03T10:10:00.396Z,96572.27
2018-12-03T10:12:35.289Z,96576.97
2018-12-03T10:15:08.612Z,96576.97
2018-12-03T10:17:47.438Z,96577.83
2018-12-03T10:20:22.302Z,96577.48
2018-12-03T10:22:57.290Z,96577.48
2018-12-03T10:25:32.291Z,96578.69
2018-12-03T10:28:10.298Z,96571.08
2018-12-03T10:30:44.966Z,96563.97
2018-12-03T10:33:36.292Z,96569.34
2018-12-03T10:36:13.285Z,96568.25
2018-12-03T10:38:50.303Z,96563.14
2018-12-03T10:41:31.683Z,96564.28
2018-12-03T10:44:07.494Z,96564.54
2018-12-03T10:46:42.353Z,96555.67
2018-12-03T10:49:17.286Z,96555.67
2018-12-03T10:51:50.291Z,96586.61
2018-12-03T10:54:25.293Z,96579.92
2018-12-03T10:57:05.291Z,96579.92
2018-12-03T10:59:40.298Z,96594.07
2018-12-03T11:02:32.414Z,96579.33
2018-12-03T11:05:24.763Z,96559.19
2018-12-03T11:08:00.470Z,96559.30
2018-12-03T11:10:42.510Z,96562.60
2018-12-03T11:13:17.453Z,96562.60
2018-12-03T11:15:52.425Z,96547.44
2018-12-03T11:18:27.626Z,96562.02
2018-12-03T11:21:08.044Z,96542.72
2018-12-03T11:23:42.903Z,96542.72
2018-12-03T11:26:18.297Z,96562.61
2018-12-03T11:29:00.288Z,96557.38
2018-12-03T11:31:34.553Z,96551.55
2018-12-03T11:34:09.955Z,96531.86
2018-12-03T11:36:54.297Z,96531.86
2018-12-03T11:39:58.328Z,96539.95
2018-12-03T11:42:39.917Z,96530.85
2018-12-03T11:45:15.639Z,96525.69
2018-12-03T11:47:50.679Z,96520.88
2018-12-03T11:50:25.923Z,96518.13
2018-12-03T11:53:00.787Z,96516.74
2018-12-03T11:55:35.959Z,96514.45
2018-12-03T11:58:10.906Z,96510.30
2018-12-03T12:00:45.959Z,96522.81
2018-12-03T12:03:20.954Z,96520.00
2018-12-03T12:05:55.731Z,96520.00
2018-12-03T12:08:30.783Z,96521.35
2018-12-03T12:11:05.906Z,96527.45
2018-12-03T12:13:40.478Z,96529.52
2018-12-03T12:16:15.286Z,96527.06
2018-12-03T12:18:49.903Z,96527.06
2018-12-03T12:21:24.797Z,96533.91
2018-12-03T12:23:59.531Z,96524.11
2018-12-03T12:26:34.292Z,96523.98
2018-12-03T12:29:10.279Z,96523.98
2018-12-03T12:31:43.182Z,96511.81
2018-12-03T12:34:17.958Z,96522.38
2018-12-03T12:36:52.709Z,96533.13
2018-12-03T12:39:27.516Z,96532.80
2018-12-03T12:42:02.307Z,96525.68
2018-12-03T12:44:37.287Z,96539.77
2018-12-03T12:47:12.469Z,96546.49
2018-12-03T12:49:47.338Z,96538.91
2018-12-03T12:52:22.282Z,96538.91
2018-12-03T12:54:56.884Z,96544.28
2018-12-03T12:57:31.800Z,96542.70
2018-12-03T13:00:07.421Z,96540.47
2018-12-03T13:02:42.286Z,96547.27
2018-12-03T13:05:17.273Z,96547.27
2018-12-03T13:07:50.345Z,96559.78
2018-12-03T13:10:25.282Z,96547.05
2018-12-03T13:12:58.048Z,96549.66
2018-12-03T13:15:31.301Z,96541.26
2018-12-03T13:18:06.307Z,96543.64
2018-12-03T13:20:39.282Z,96539.63
2018-12-03T13:23:14.274Z,96541.07
2018-12-03T13:25:49.288Z,96542.30
2018-12-03T13:28:24.278Z,96537.52
2018-12-03T13:30:57.277Z,96524.52
2018-12-03T13:33:30.287Z,96529.89
2018-12-03T13:36:03.094Z,96529.89
2018-12-03T13:38:36.278Z,96520.86
2018-12-03T13:41:09.421Z,96525.20
2018-12-03T13:43:44.314Z,96520.00
2018-12-03T13:46:19.275Z,96520.00
2018-12-03T13:48:52.280Z,96524.75
2018-12-03T13:51:27.280Z,96523.69
2018-12-03T13:54:00.050Z,96524.98
2018-12-03T13:56:34.953Z,96528.91
2018-12-03T13:59:10.280Z,96541.74
2018-12-03T14:01:43.086Z,96557.05
2018-12-03T14:04:17.997Z,96554.00
2018-12-03T14:07:34.288Z,96550.73
2018-12-03T14:10:37.128Z,96548.77
2018-12-03T14:13:19.819Z,96552.73
2018-12-03T14:16:44.299Z,96565.28
2018-12-03T14:19:26.101Z,96564.92
2018-12-03T14:22:18.285Z,96553.70
2018-12-03T14:24:51.052Z,96549.66
2018-12-03T14:27:25.905Z,96548.13
2018-12-03T14:30:00.544Z,96548.78
2018-12-03T14:32:35.365Z,96552.60
2018-12-03T14:35:13.470Z,96544.25
2018-12-03T14:37:48.323Z,96539.44
2018-12-03T14:40:23.288Z,96537.25
2018-12-03T14:42:57.755Z,96537.25
2018-12-03T14:45:32.891Z,96541.63
2018-12-03T14:48:08.367Z,96542.32
2018-12-03T14:50:43.279Z,96536.62
2018-12-03T14:53:16.013Z,96536.62
2018-12-03T14:55:50.898Z,96541.41
2018-12-03T14:58:25.946Z,96535.38
2018-12-03T15:01:00.718Z,96535.38
2018-12-03T15:03:35.276Z,96531.05
2018-12-03T15:06:08.279Z,96538.73
2018-12-03T15:08:41.283Z,96527.74
2018-12-03T15:11:14.276Z,96526.83
2018-12-03T15:13:47.308Z,96542.19
2018-12-03T15:16:22.274Z,96535.63
2018-12-03T15:18:55.070Z,96535.00
2018-12-03T15:21:28.021Z,96534.83
2018-12-03T15:24:02.891Z,96522.29
2018-12-03T15:26:38.020Z,96526.58
2018-12-03T15:29:13.278Z,96531.24
2018-12-03T15:31:47.944Z,96536.80
2018-12-03T15:34:22.717Z,96534.68
2018-12-03T15:36:57.352Z,96517.22
2018-12-03T15:39:32.373Z,96517.22
2018-12-03T15:42:05.279Z,96520.34
2018-12-03T15:44:38.267Z,96524.38
2018-12-03T15:47:11.280Z,96531.84
2018-12-03T15:49:44.012Z,96533.45
2018-12-03T15:52:18.707Z,96527.97
2018-12-03T15:54:53.456Z,96534.09
2018-12-03T15:57:28.365Z,96545.42
2018-12-03T16:00:03.283Z,96545.42
2018-12-03T16:02:36.267Z,96555.26
2018-12-03T16:05:14.693Z,96544.03
2018-12-03T16:07:49.341Z,96527.84
2018-12-03T16:10:24.271Z,96544.13
2018-12-03T16:12:57.277Z,96549.86
2018-12-03T16:15:30.007Z,96539.75
2018-12-03T16:18:07.669Z,96545.67
2018-12-03T16:20:42.510Z,96555.78
2018-12-03T16:23:17.361Z,96540.17
2018-12-03T16:25:52.286Z,96546.35
2018-12-03T16:28:25.269Z,96545.48
2018-12-03T16:30:58.286Z,96531.39
2018-12-03T16:33:33.424Z,96531.39
2018-12-03T16:36:08.291Z,96540.83
2018-12-03T16:38:42.949Z,96540.83
2018-12-03T16:41:17.953Z,96542.59
2018-12-03T16:43:52.906Z,96544.88
2018-12-03T16:46:27.640Z,96549.67
2018-12-03T16:49:02.344Z,96536.97
2018-12-03T16:51:37.286Z,96522.10
2018-12-03T16:54:10.011Z,96522.10
2018-12-03T16:56:44.887Z,96525.99
2018-12-03T16:59:19.918Z,96525.23
2018-12-03T17:01:54.746Z,96535.09
2018-12-03T17:04:29.652Z,96544.83
2018-12-03T17:07:04.274Z,96534.48
2018-12-03T17:09:37.361Z,96526.30
2018-12-03T17:12:12.438Z,96528.45
2018-12-03T17:14:47.334Z,96533.25
2018-12-03T17:17:20.420Z,96533.25
2018-12-03T17:19:55.371Z,96524.91
2018-12-03T17:23:37.286Z,96524.91
2018-12-03T17:26:12.284Z,96536.48
2018-12-03T17:28:45.288Z,96540.86
2018-12-03T17:31:18.052Z,96554.72
2018-12-03T17:33:53.287Z,96540.86
2018-12-03T17:36:27.920Z,96550.31
2018-12-03T17:39:04.387Z,96541.09
2018-12-03T17:41:39.281Z,96544.77
2018-12-03T17:44:12.373Z,96544.77
2018-12-03T17:46:47.293Z,96546.49
2018-12-03T17:49:22.285Z,96544.71
2018-12-03T17:51:55.287Z,96532.15
2018-12-03T17:54:28.289Z,96532.15
2018-12-03T17:57:01.283Z,96542.38
2018-12-03T17:59:36.287Z,96527.42
2018-12-03T18:02:10.956Z,96527.42
2018-12-03T18:04:45.765Z,96532.83
2018-12-03T18:07:21.285Z,96533.09
2018-12-03T18:09:55.282Z,96533.20
2018-12-03T18:12:28.034Z,96544.17
2018-12-03T18:15:02.966Z,96544.17
2018-12-03T18:17:37.925Z,96549.33
2018-12-03T18:20:14.286Z,96542.53
2018-12-03T18:22:47.114Z,96530.92
2018-12-03T18:25:22.277Z,96511.75
2018-12-03T18:27:57.289Z,96509.87
2018-12-03T18:30:32.281Z,96507.41
2018-12-03T18:33:05.127Z,96495.17
2018-12-03T18:35:40.276Z,96481.95
2018-12-03T18:38:13.280Z,96481.95
2018-12-03T18:40:46.294Z,96495.39
2018-12-03T18:43:20.757Z,96490.73
2018-12-03T18:45:55.792Z,96491.48
2018-12-03T18:48:30.955Z,96488.97
2018-12-03T18:51:05.804Z,96486.09
2018-12-03T18:53:40.922Z,96484.58
2018-12-03T18:56:15.963Z,96490.08
2018-12-03T18:59:05.922Z,96494.48
2018-12-03T19:01:41.102Z,96493.98
2018-12-03T19:04:16.387Z,96496.00
2018-12-03T19:06:51.302Z,96496.25
2018-12-03T19:09:24.041Z,96491.95
2018-12-03T19:11:58.900Z,96499.45
2018-12-03T19:14:36.763Z,96492.77
2018-12-03T19:17:11.962Z,96483.34
2018-12-03T19:19:46.427Z,96483.34
2018-12-03T19:22:19.511Z,96488.99
2018-12-03T19:24:54.289Z,96485.23
2018-12-03T19:27:30.296Z,96486.19
2018-12-03T19:30:05.110Z,96486.19
2018-12-03T19:32:40.781Z,96486.98
2018-12-03T19:35:15.308Z,96492.27
2018-12-03T19:37:50.809Z,96487.95
2018-12-03T19:40:25.299Z,96482.54
2018-12-03T19:43:00.763Z,96482.54
2018-12-03T19:45:35.298Z,96479.10
2018-12-03T19:48:18.796Z,96477.30
2018-12-03T19:50:53.502Z,96484.11
2018-12-03T19:53:28.383Z,96485.03
2018-12-03T19:56:03.300Z,96480.27
2018-12-03T19:58:47.578Z,96478.13
2018-12-03T20:01:22.293Z,96476.23
2018-12-03T20:03:55.330Z,96481.13
2018-12-03T20:06:30.340Z,96479.39
2018-12-03T20:09:05.936Z,96480.14
2018-12-03T20:11:41.432Z,96480.14
2018-12-03T20:14:16.287Z,96488.61
2018-12-03T20:16:49.681Z,96488.61
2018-12-03T20:19:24.429Z,96491.73
2018-12-03T20:21:59.968Z,96486.73
2018-12-03T20:24:34.985Z,96488.74
2018-12-03T20:27:36.221Z,96482.41
2018-12-03T20:33:36.040Z,96477.08
2018-12-03T20:39:54.250Z,96476.11
2018-12-03T20:45:30.788Z,96474.84
2018-12-03T20:50:56.253Z,96481.30
2018-12-03T20:56:15.621Z,96472.36
2018-12-03T21:01:27.632Z,96472.53
2018-12-03T21:06:41.070Z,96483.17
2018-12-03T21:11:53.509Z,96489.57
2018-12-03T21:17:09.058Z,96491.84
2018-12-03T21:22:22.195Z,96494.13
2018-12-03T21:27:35.651Z,96481.16
2018-12-03T21:32:49.315Z,96481.01
2018-12-03T21:38:03.938Z,96479.84
2018-12-03T21:43:16.811Z,96485.47
2018-12-03T21:48:29.838Z,96495.80
2018-12-03T21:53:43.374Z,96499.33
2018-12-03T21:58:56.774Z,96508.25
2018-12-03T22:04:08.682Z,96501.13
2018-12-03T22:09:22.950Z,96516.63
2018-12-03T22:14:35.835Z,96523.09
2018-12-03T22:19:51.467Z,96523.11
2018-12-03T22:25:05.627Z,96513.78
2018-12-03T22:30:20.671Z,96510.82
2018-12-03T22:35:39.789Z,96517.87
2018-12-03T22:40:52.614Z,96527.58
2018-12-03T22:46:05.032Z,96528.86
2018-12-03T22:51:20.428Z,96526.84
2018-12-03T22:56:32.363Z,96543.08
2018-12-03T23:01:44.334Z,96553.65
2018-12-03T23:11:49.374Z,96555.06
2018-12-03T23:17:02.756Z,96567.02
2018-12-03T23:22:14.328Z,96574.31
2018-12-03T23:24:44.697Z,96574.44
2018-12-03T23:29:57.083Z,96594.20
2018-12-03T23:35:09.564Z,96595.84
2018-12-03T23:40:22.691Z,96601.41
2018-12-03T23:45:35.039Z,96605.42
2018-12-03T23:50:51.043Z,96605.82
2018-12-03T23:56:04.370Z,96616.15
